Time;durP1;ratioP1;P1;durP2;ratioP2;P2;SDS_P1;SDS_P2;PMS_P1;PMS_P2;Temp;Humidity;BMP_temperature;BMP_pressure;BME280_temperature;BME280_humidity;BME280_pressure;Samples;Min_cycle;Max_cycle;Signal;HPM_P1;HPM_P2
2024/01/15 00:01:17;;;;;;;;;;;;;;;;;;5069647;28;20304;-81
2024/01/15 00:03:43;;;;;;;;;;;;;;;;;;5069525;28;19912;-81
2024/01/15 00:06:08;;;;;;;;;;;;;;;;;;5081024;28;20432;-81
2024/01/15 00:08:34;;;;;;;;;;;;;;;;;;5073032;28;20807;-81
2024/01/15 00:11:00;;;;;;;;;;;;;;;;;;5088122;28;20361;-82
2024/01/15 00:13:26;;;;;;;;;;;;;;;;;;5073604;28;20058;-82
2024/01/15 00:15:52;;;;;;;;;;;;;;;;;;5073498;28;19938;-80
2024/01/15 00:18:18;;;;;;;;;;;;;;;;;;5075452;28;19931;-81
2024/01/15 00:20:44;;;;;;;;;;;;;;;;;;5072830;28;19920;-81
2024/01/15 00:23:09;;;;;;;;;;;;;;;;;;5077596;28;19962;-81
2024/01/15 00:25:35;;;;;;;;;;;;;;;;;;5078495;28;19913;-81
2024/01/15 00:28:01;;;;;;;;;;;;;;;;;;5072499;28;19920;-81
2024/01/15 00:30:27;;;;;;;;;;;;;;;;;;5090126;28;19912;-82
2024/01/15 00:32:53;;;;;;;;;;;;;;;;;;5082894;28;19915;-81
2024/01/15 00:35:19;;;;;;;;;;;;;;;;;;5073601;28;19947;-81
2024/01/15 00:37:45;;;;;;;;;;;;;;;;;;5072170;28;20003;-81
2024/01/15 00:40:11;;;;;;;;;;;;;;;;;;5081529;28;19999;-81
2024/01/15 00:42:37;;;;;;;;;;;;;;;;;;5081466;28;19912;-81
2024/01/15 00:45:05;;;;;;;;;;;;;;;;;;5076994;28;20004;-81
2024/01/15 00:47:31;;;;;;;;;;;;;;;;;;5082151;28;20371;-81
2024/01/15 00:49:56;;;;;;;;;;;;;;;;;;5084571;28;19942;-81
2024/01/15 00:52:22;;;;;;;;;;;;;;;;;;5079215;28;19938;-81
2024/01/15 00:54:48;;;;;;;;;;;;;;;;;;5080668;28;19928;-81
2024/01/15 00:57:14;;;;;;;;;;;;;;;;;;5077703;28;19920;-82
2024/01/15 00:59:40;;;;;;;;;;;;;;;;;;5086984;28;20011;-81
2024/01/15 01:02:06;;;;;;;;;;;;;;;;;;5076586;28;19923;-81
2024/01/15 01:04:32;;;;;;;;;;;;;;;;;;5089836;28;19912;-79
2024/01/15 01:06:57;;;;;;;;;;;;;;;;;;5078072;28;19913;-79
2024/01/15 01:09:24;;;;;;;;;;;;;;;;;;5077556;28;19985;-80
2024/01/15 01:11:50;;;;;;;;;;;;;;;;;;5083192;28;19912;-80
2024/01/15 01:14:16;;;;;;;;;;;;;;;;;;5079607;28;19916;-80
2024/01/15 01:16:41;;;;;;;;;;;;;;;;;;5074753;28;19969;-79
2024/01/15 01:19:07;;;;;;;;;;;;;;;;;;5072513;28;19920;-80
2024/01/15 01:21:33;;;;;;;;;;;;;;;;;;5071481;28;19986;-80
2024/01/15 01:23:59;;;;;;;;;;;;;;;;;;5058591;28;19922;-80
2024/01/15 01:26:25;;;;;;;;;;;;;;;;;;5081310;28;19919;-80
2024/01/15 01:28:51;;;;;;;;;;;;;;;;;;5084216;28;20345;-81
2024/01/15 01:31:17;;;;;;;;;;;;;;;;;;5078886;28;20290;-82
2024/01/15 01:33:43;;;;;;;;;;;;;;;;;;5084846;28;19922;-81
2024/01/15 01:36:09;;;;;;;;;;;;;;;;;;5079321;28;20051;-80
2024/01/15 01:38:35;;;;;;;;;;;;;;;;;;5072090;28;19916;-81
2024/01/15 01:41:01;;;;;;;;;;;;;;;;;;5073646;28;20371;-81
2024/01/15 01:43:27;;;;;;;;;;;;;;;;;;5073853;28;19923;-80
2024/01/15 01:45:52;;;;;;;;;;;;;;;;;;5077801;28;20013;-78
2024/01/15 01:48:18;;;;;;;;;;;;;;;;;;5077800;28;19917;-78
2024/01/15 01:50:44;;;;;;;;;;;;;;;;;;5075728;28;19937;-80
2024/01/15 01:53:10;;;;;;;;;;;;;;;;;;5082849;28;19955;-79
2024/01/15 01:55:36;;;;;;;;;;;;;;;;;;5085080;28;19912;-78
2024/01/15 01:58:02;;;;;;;;;;;;;;;;;;5076443;28;19923;-78
2024/01/15 02:00:27;;;;;;;;;;;;;;;;;;5071322;28;20298;-79
2024/01/15 02:02:53;;;;;;;;;;;;;;;;;;5077495;28;20429;-78
2024/01/15 02:05:21;;;;;;;;;;;;;;;;;;5073382;28;19961;-78
2024/01/15 02:07:47;;;;;;;;;;;;;;;;;;5072340;28;19920;-78
2024/01/15 02:10:13;;;;;;;;;;;;;;;;;;5075022;28;19912;-78
2024/01/15 02:12:39;;;;;;;;;;;;;;;;;;5074296;28;19993;-78
2024/01/15 02:15:05;;;;;;;;;;;;;;;;;;5073838;28;19912;-79
2024/01/15 02:17:31;;;;;;;;;;;;;;;;;;5072710;28;19920;-78
2024/01/15 02:19:56;;;;;;;;;;;;;;;;;;5084957;28;19947;-78
2024/01/15 02:22:22;;;;;;;;;;;;;;;;;;5082608;28;20274;-79
2024/01/15 02:24:48;;;;;;;;;;;;;;;;;;5086697;28;19927;-78
2024/01/15 02:27:14;;;;;;;;;;;;;;;;;;5080605;28;19912;-78
2024/01/15 02:29:40;;;;;;;;;;;;;;;;;;5070284;28;19966;-79
2024/01/15 02:32:06;;;;;;;;;;;;;;;;;;5084342;28;20374;-79
2024/01/15 02:34:31;;;;;;;;;;;;;;;;;;5074821;28;20612;-79
2024/01/15 02:36:57;;;;;;;;;;;;;;;;;;5081296;28;19924;-79
2024/01/15 02:39:23;;;;;;;;;;;;;;;;;;5073207;28;20418;-79
2024/01/15 02:41:49;;;;;;;;;;;;;;;;;;5069289;28;20420;-79
2024/01/15 02:44:15;;;;;;;;;;;;;;;;;;5083902;28;20365;-79
2024/01/15 02:46:41;;;;;;;;;;;;;;;;;;5085242;28;19973;-79
2024/01/15 02:49:06;;;;;;;;;;;;;;;;;;5084518;28;19916;-81
2024/01/15 02:51:32;;;;;;;;;;;;;;;;;;5071191;28;20012;-79
2024/01/15 02:53:58;;;;;;;;;;;;;;;;;;5075186;28;19927;-79
2024/01/15 02:56:24;;;;;;;;;;;;;;;;;;5086444;28;19923;-80
2024/01/15 02:58:50;;;;;;;;;;;;;;;;;;5077845;28;19951;-79
2024/01/15 03:01:16;;;;;;;;;;;;;;;;;;5073797;28;20268;-79
2024/01/15 03:03:42;;;;;;;;;;;;;;;;;;5077893;28;19981;-80
2024/01/15 03:06:07;;;;;;;;;;;;;;;;;;5073358;28;19912;-80
2024/01/15 03:08:35;;;;;;;;;;;;;;;;;;5079946;28;19957;-79
2024/01/15 03:11:01;;;;;;;;;;;;;;;;;;5078976;28;19912;-80
2024/01/15 03:13:26;;;;;;;;;;;;;;;;;;5075830;28;19926;-80
2024/01/15 03:15:52;;;;;;;;;;;;;;;;;;5078390;28;19920;-79
2024/01/15 03:18:18;;;;;;;;;;;;;;;;;;5084853;28;20005;-79
2024/01/15 03:20:44;;;;;;;;;;;;;;;;;;5078035;28;20374;-79
2024/01/15 03:23:10;;;;;;;;;;;;;;;;;;5070006;28;20347;-79
2024/01/15 03:25:36;;;;;;;;;;;;;;;;;;5079303;28;20017;-79
2024/01/15 03:28:01;;;;;;;;;;;;;;;;;;5073883;28;19936;-79
2024/01/15 03:30:28;;;;;;;;;;;;;;;;;;5077295;28;19916;-79
2024/01/15 03:32:54;;;;;;;;;;;;;;;;;;5073495;28;19908;-79
2024/01/15 03:35:20;;;;;;;;;;;;;;;;;;5081870;28;19916;-78
2024/01/15 03:37:45;;;;;;;;;;;;;;;;;;5071260;28;20011;-80
2024/01/15 03:40:11;;;;;;;;;;;;;;;;;;5079918;28;19973;-79
2024/01/15 03:42:37;;;;;;;;;;;;;;;;;;5085791;28;19916;-79
2024/01/15 03:45:03;;;;;;;;;;;;;;;;;;5088078;28;19923;-79
2024/01/15 03:47:29;;;;;;;;;;;;;;;;;;5080499;28;19916;-79
2024/01/15 03:49:55;;;;;;;;;;;;;;;;;;5075035;28;19919;-79
2024/01/15 03:52:20;;;;;;;;;;;;;;;;;;5069373;28;19912;-79
2024/01/15 03:54:46;;;;;;;;;;;;;;;;;;5080563;28;19912;-79
2024/01/15 03:57:12;;;;;;;;;;;;;;;;;;5088075;28;20030;-80
2024/01/15 03:59:38;;;;;;;;;;;;;;;;;;5079579;28;19973;-79
2024/01/15 04:02:04;;;;;;;;;;;;;;;;;;5083338;28;20312;-80
2024/01/15 04:04:30;;;;;;;;;;;;;;;;;;5085840;28;19943;-79
2024/01/15 04:06:55;;;;;;;;;;;;;;;;;;5080593;28;19909;-79
2024/01/15 04:09:21;;;;;;;;;;;;;;;;;;5080790;28;19969;-78
2024/01/15 04:11:47;;;;;;;;;;;;;;;;;;5084824;28;19947;-79
2024/01/15 04:14:13;;;;;;;;;;;;;;;;;;5078758;28;19920;-78
2024/01/15 04:16:39;;;;;;;;;;;;;;;;;;5084591;28;19931;-79
2024/01/15 04:19:05;;;;;;;;;;;;;;;;;;5081000;28;19999;-79
2024/01/15 04:21:30;;;;;;;;;;;;;;;;;;5072762;28;19923;-79
2024/01/15 04:23:56;;;;;;;;;;;;;;;;;;5081468;28;19912;-79
2024/01/15 04:26:22;;;;;;;;;;;;;;;;;;5076090;28;19913;-79
2024/01/15 04:28:48;;;;;;;;;;;;;;;;;;5077595;28;19924;-79
2024/01/15 04:31:14;;;;;;;;;;;;;;;;;;5083185;28;19935;-79
2024/01/15 04:33:40;;;;;;;;;;;;;;;;;;5089810;28;19912;-79
2024/01/15 04:36:05;;;;;;;;;;;;;;;;;;5075042;28;19924;-79
2024/01/15 04:38:32;;;;;;;;;;;;;;;;;;5078011;28;20007;-80
2024/01/15 04:40:58;;;;;;;;;;;;;;;;;;5080513;28;19938;-80
2024/01/15 04:43:24;;;;;;;;;;;;;;;;;;5061173;28;19916;-79
2024/01/15 04:45:50;;;;;;;;;;;;;;;;;;5079323;28;19913;-79
2024/01/15 04:48:16;;;;;;;;;;;;;;;;;;5081823;28;19935;-79
2024/01/15 04:50:42;;;;;;;;;;;;;;;;;;5082565;28;19930;-79
2024/01/15 04:53:08;;;;;;;;;;;;;;;;;;5080933;28;19908;-79
2024/01/15 04:55:33;;;;;;;;;;;;;;;;;;5088069;28;20009;-79
2024/01/15 04:57:59;;;;;;;;;;;;;;;;;;5075939;28;19923;-79
2024/01/15 05:00:25;;;;;;;;;;;;;;;;;;5079537;28;19920;-80
2024/01/15 05:02:51;;;;;;;;;;;;;;;;;;5072446;28;19912;-79
2024/01/15 05:05:17;;;;;;;;;;;;;;;;;;5077210;28;20403;-79
2024/01/15 05:07:43;;;;;;;;;;;;;;;;;;5084037;28;19912;-79
2024/01/15 05:10:09;;;;;;;;;;;;;;;;;;5074068;28;19920;-80
2024/01/15 05:12:34;;;;;;;;;;;;;;;;;;5081401;28;19934;-79
2024/01/15 05:15:00;;;;;;;;;;;;;;;;;;5078042;28;19935;-80
2024/01/15 05:17:26;;;;;;;;;;;;;;;;;;5078361;28;19912;-79
2024/01/15 05:19:52;;;;;;;;;;;;;;;;;;5078035;28;19912;-79
2024/01/15 05:22:18;;;;;;;;;;;;;;;;;;5074765;28;20020;-79
2024/01/15 05:24:44;;;;;;;;;;;;;;;;;;5080505;28;19973;-80
2024/01/15 05:27:09;;;;;;;;;;;;;;;;;;5079323;28;21530;-80
2024/01/15 05:29:35;;;;;;;;;;;;;;;;;;5077895;28;21278;-82
2024/01/15 05:32:01;;;;;;;;;;;;;;;;;;5087071;28;19912;-80
2024/01/15 05:34:27;;;;;;;;;;;;;;;;;;5088601;28;19920;-80
2024/01/15 05:36:53;;;;;;;;;;;;;;;;;;5086338;28;20078;-81
2024/01/15 05:39:19;;;;;;;;;;;;;;;;;;5073433;28;19920;-82
2024/01/15 05:41:45;;;;;;;;;;;;;;;;;;5082617;28;19912;-83
2024/01/15 05:44:11;;;;;;;;;;;;;;;;;;5073116;28;20322;-81
2024/01/15 05:46:36;;;;;;;;;;;;;;;;;;5072827;28;19916;-82
2024/01/15 05:49:02;;;;;;;;;;;;;;;;;;5070954;28;19908;-84
2024/01/15 05:51:28;;;;;;;;;;;;;;;;;;5068852;28;20504;-83
2024/01/15 05:53:54;;;;;;;;;;;;;;;;;;5071183;28;20653;-84
2024/01/15 05:56:20;;;;;;;;;;;;;;;;;;5076332;28;19985;-86
2024/01/15 05:58:46;;;;;;;;;;;;;;;;;;5076896;28;19918;-85
2024/01/15 06:01:12;;;;;;;;;;;;;;;;;;5087115;28;19912;-80
2024/01/15 06:03:37;;;;;;;;;;;;;;;;;;5084475;28;19911;-85
2024/01/15 06:06:03;;;;;;;;;;;;;;;;;;5100707;28;19930;-82
2024/01/15 06:08:29;;;;;;;;;;;;;;;;;;5075332;28;19928;-81
2024/01/15 06:10:55;;;;;;;;;;;;;;;;;;5073710;28;20004;-82
2024/01/15 06:13:21;;;;;;;;;;;;;;;;;;5077841;28;19958;-82
2024/01/15 06:15:47;;;;;;;;;;;;;;;;;;5066614;28;20386;-82
2024/01/15 06:18:12;;;;;;;;;;;;;;;;;;5074900;28;19928;-81
2024/01/15 06:20:38;;;;;;;;;;;;;;;;;;5083681;28;19996;-82
2024/01/15 06:23:04;;;;;;;;;;;;;;;;;;5089317;28;20386;-80
2024/01/15 06:25:30;;;;;;;;;;;;;;;;;;5085022;28;20471;-80
2024/01/15 06:27:56;;;;;;;;;;;;;;;;;;5085085;28;19912;-85
2024/01/15 06:30:22;;;;;;;;;;;;;;;;;;5076499;28;19916;-85
2024/01/15 06:32:48;;;;;;;;;;;;;;;;;;5087980;28;19931;-85
2024/01/15 06:35:13;;;;;;;;;;;;;;;;;;5084423;28;19916;-86
2024/01/15 06:37:39;;;;;;;;;;;;;;;;;;5086023;28;19970;-85
2024/01/15 06:40:06;;;;;;;;;;;;;;;;;;5085525;28;20018;-85
2024/01/15 06:42:32;;;;;;;;;;;;;;;;;;5087389;28;19937;-82
2024/01/15 06:44:58;;;;;;;;;;;;;;;;;;5085018;28;20010;-85
2024/01/15 06:47:24;;;;;;;;;;;;;;;;;;5084532;28;20022;-84
2024/01/15 06:49:51;;;;;;;;;;;;;;;;;;5085072;28;19920;-85
2024/01/15 06:52:17;;;;;;;;;;;;;;;;;;5085259;28;19912;-86
2024/01/15 06:54:43;;;;;;;;;;;;;;;;;;5087591;28;19912;-86
2024/01/15 06:57:09;;;;;;;;;;;;;;;;;;5085239;28;20350;-84
2024/01/15 06:59:38;;;;;;;;;;;;;;;;;;5086360;28;19912;-85
2024/01/15 07:02:04;;;;;;;;;;;;;;;;;;5084400;28;19985;-87
2024/01/15 07:04:29;;;;;;;;;;;;;;;;;;5085775;28;19923;-85
2024/01/15 07:06:56;;;;;;;;;;;;;;;;;;5084779;28;19927;-85
2024/01/15 07:09:22;;;;;;;;;;;;;;;;;;5085884;28;20434;-86
2024/01/15 07:11:48;;;;;;;;;;;;;;;;;;5086330;28;20000;-86
2024/01/15 07:14:14;;;;;;;;;;;;;;;;;;5086221;28;20309;-85
2024/01/15 07:16:40;;;;;;;;;;;;;;;;;;5076296;28;19948;-87
2024/01/15 07:19:06;;;;;;;;;;;;;;;;;;5080018;28;19912;-87
2024/01/15 07:21:32;;;;;;;;;;;;;;;;;;5082744;28;19939;-85
2024/01/15 07:23:57;;;;;;;;;;;;;;;;;;5069744;28;20267;-86
2024/01/15 07:26:23;;;;;;;;;;;;;;;;;;5084649;28;20403;-81
2024/01/15 07:28:49;;;;;;;;;;;;;;;;;;5075485;28;19913;-87
2024/01/15 07:31:15;;;;;;;;;;;;;;;;;;5083745;28;19943;-81
2024/01/15 07:33:41;;;;;;;;;;;;;;;;;;5073366;28;20295;-84
2024/01/15 07:36:07;;;;;;;;;;;;;;;;;;5070728;28;19971;-83
2024/01/15 07:38:34;;;;;;;;;;;;;;;;;;5068363;28;21347;-83
2024/01/15 07:41:00;;;;;;;;;;;;;;;;;;5079683;28;20476;-85
2024/01/15 07:43:27;;;;;;;;;;;;;;;;;;5072077;28;19912;-82
2024/01/15 07:45:53;;;;;;;;;;;;;;;;;;5076610;28;19920;-82
2024/01/15 07:48:20;;;;;;;;;;;;;;;;;;5073837;28;19912;-83
2024/01/15 07:50:45;;;;;;;;;;;;;;;;;;5073652;28;19912;-87
2024/01/15 07:53:11;;;;;;;;;;;;;;;;;;5075238;28;20001;-85
2024/01/15 07:55:37;;;;;;;;;;;;;;;;;;5064377;28;19912;-86
2024/01/15 07:58:03;;;;;;;;;;;;;;;;;;5057545;28;19962;-88
2024/01/15 08:00:29;;;;;;;;;;;;;;;;;;5071033;28;20058;-86
2024/01/15 08:02:55;;;;;;;;;;;;;;;;;;5074093;28;19912;-87
2024/01/15 08:05:20;;;;;;;;;;;;;;;;;;5076322;28;19919;-88
2024/01/15 08:07:46;;;;;;;;;;;;;;;;;;5085934;28;20451;-87
2024/01/15 08:10:13;;;;;;;;;;;;;;;;;;5082882;28;19909;-85
2024/01/15 08:12:39;;;;;;;;;;;;;;;;;;5055262;28;19982;-86
2024/01/15 08:15:05;;;;;;;;;;;;;;;;;;5077046;28;19924;-81
2024/01/15 08:17:32;;;;;;;;;;;;;;;;;;5070662;28;19926;-88
2024/01/15 08:19:59;;;;;;;;;;;;;;;;;;5068829;28;20343;-85
2024/01/15 08:22:25;;;;;;;;;;;;;;;;;;5069862;28;19916;-87
2024/01/15 08:24:51;;;;;;;;;;;;;;;;;;5064821;28;20432;-86
2024/01/15 08:27:17;;;;;;;;;;;;;;;;;;5080928;28;20466;-87
2024/01/15 08:29:44;;;;;;;;;;;;;;;;;;5068355;28;19995;-87
2024/01/15 08:32:13;;;;;;;;;;;;;;;;;;5077416;28;20383;-89
2024/01/15 08:34:39;;;;;;;;;;;;;;;;;;5071166;28;19974;-87
2024/01/15 08:37:05;;;;;;;;;;;;;;;;;;5067953;28;19920;-87
2024/01/15 08:39:31;;;;;;;;;;;;;;;;;;5068738;28;20011;-86
2024/01/15 08:41:57;;;;;;;;;;;;;;;;;;5072359;28;19908;-86
2024/01/15 08:44:23;;;;;;;;;;;;;;;;;;5071973;28;19912;-88
2024/01/15 08:46:49;;;;;;;;;;;;;;;;;;5072053;28;20402;-87
2024/01/15 08:49:14;;;;;;;;;;;;;;;;;;5088324;28;20294;-88
2024/01/15 08:51:40;;;;;;;;;;;;;;;;;;5081201;28;19978;-88
2024/01/15 08:54:08;;;;;;;;;;;;;;;;;;5058660;28;20010;-89
2024/01/15 08:56:34;;;;;;;;;;;;;;;;;;5092564;28;19916;-88
2024/01/15 08:58:59;;;;;;;;;;;;;;;;;;5087552;28;19934;-89
2024/01/15 09:01:25;;;;;;;;;;;;;;;;;;5081235;28;19908;-88
2024/01/15 09:03:51;;;;;;;;;;;;;;;;;;5072023;28;19915;-89
2024/01/15 09:06:17;;;;;;;;;;;;;;;;;;5083383;28;20008;-89
2024/01/15 09:08:43;;;;;;;;;;;;;;;;;;5073811;28;19912;-89
2024/01/15 09:11:09;;;;;;;;;;;;;;;;;;5072124;28;20141;-88
2024/01/15 09:13:35;;;;;;;;;;;;;;;;;;5071429;28;19909;-89
2024/01/15 09:16:02;;;;;;;;;;;;;;;;;;5079070;28;20359;-89
2024/01/15 09:18:28;;;;;;;;;;;;;;;;;;5071648;28;19962;-88
2024/01/15 09:20:54;;;;;;;;;;;;;;;;;;5084215;28;19961;-88
2024/01/15 09:23:19;;;;;;;;;;;;;;;;;;5073417;28;20313;-89
2024/01/15 09:25:45;;;;;;;;;;;;;;;;;;5083534;28;19916;-88
2024/01/15 09:28:11;;;;;;;;;;;;;;;;;;5086639;28;19915;-88
2024/01/15 09:30:37;;;;;;;;;;;;;;;;;;5072270;28;19999;-89
2024/01/15 09:33:03;;;;;;;;;;;;;;;;;;5086407;28;19908;-89
2024/01/15 09:35:29;;;;;;;;;;;;;;;;;;5071367;28;20564;-89
2024/01/15 09:37:55;;;;;;;;;;;;;;;;;;5074058;28;20530;-87
2024/01/15 09:40:20;;;;;;;;;;;;;;;;;;5064870;28;19950;-90
2024/01/15 09:42:46;;;;;;;;;;;;;;;;;;5078524;28;19915;-88
2024/01/15 09:45:12;;;;;;;;;;;;;;;;;;5089297;28;20329;-89
2024/01/15 09:47:38;;;;;;;;;;;;;;;;;;5079130;28;20267;-90
2024/01/15 09:50:04;;;;;;;;;;;;;;;;;;5080868;28;19999;-89
2024/01/15 09:52:30;;;;;;;;;;;;;;;;;;5085321;28;19912;-88
2024/01/15 09:54:56;;;;;;;;;;;;;;;;;;5083133;28;19919;-89
2024/01/15 09:57:22;;;;;;;;;;;;;;;;;;5093579;28;19915;-88
2024/01/15 09:59:47;;;;;;;;;;;;;;;;;;5082121;28;19955;-88
2024/01/15 10:02:17;;;;;;;;;;;;;;;;;;5082492;28;19997;-88
2024/01/15 10:04:43;;;;;;;;;;;;;;;;;;5075177;28;19909;-88
2024/01/15 10:07:09;;;;;;;;;;;;;;;;;;5087830;28;19917;-88
2024/01/15 10:09:35;;;;;;;;;;;;;;;;;;5072424;28;19973;-88
2024/01/15 10:12:00;;;;;;;;;;;;;;;;;;5071515;28;20355;-87
2024/01/15 10:14:26;;;;;;;;;;;;;;;;;;5071585;28;20310;-89
2024/01/15 10:16:52;;;;;;;;;;;;;;;;;;5084452;28;19924;-88
2024/01/15 10:19:18;;;;;;;;;;;;;;;;;;5071563;28;19919;-89
2024/01/15 10:21:44;;;;;;;;;;;;;;;;;;5071364;28;19913;-88
2024/01/15 10:24:10;;;;;;;;;;;;;;;;;;5079935;28;20132;-89
2024/01/15 10:26:35;;;;;;;;;;;;;;;;;;5083917;28;19987;-89
2024/01/15 10:29:01;;;;;;;;;;;;;;;;;;5072974;28;20355;-87
2024/01/15 10:31:27;;;;;;;;;;;;;;;;;;5066145;28;20145;-88
2024/01/15 10:33:53;;;;;;;;;;;;;;;;;;5082345;28;20330;-89
2024/01/15 10:36:19;;;;;;;;;;;;;;;;;;5073632;28;20471;-89
2024/01/15 10:38:45;;;;;;;;;;;;;;;;;;5070650;28;19912;-87
2024/01/15 10:41:11;;;;;;;;;;;;;;;;;;5078567;28;19912;-89
2024/01/15 10:43:37;;;;;;;;;;;;;;;;;;5079425;28;20003;-89
2024/01/15 10:46:03;;;;;;;;;;;;;;;;;;5083751;28;19977;-90
2024/01/15 10:48:30;;;;;;;;;;;;;;;;;;5070421;28;20323;-91
2024/01/15 10:50:56;;;;;;;;;;;;;;;;;;5084084;28;19908;-88
2024/01/15 10:53:22;;;;;;;;;;;;;;;;;;5070172;28;19913;-89
2024/01/15 10:55:48;;;;;;;;;;;;;;;;;;5088715;28;19918;-88
2024/01/15 10:58:14;;;;;;;;;;;;;;;;;;5081102;28;20310;-88
2024/01/15 11:00:40;;;;;;;;;;;;;;;;;;5076841;28;20046;-89
2024/01/15 11:03:06;;;;;;;;;;;;;;;;;;5083348;28;19912;-88
2024/01/15 11:05:31;;;;;;;;;;;;;;;;;;5070530;28;19909;-86
2024/01/15 11:07:57;;;;;;;;;;;;;;;;;;5073267;28;19953;-88
2024/01/15 11:10:23;;;;;;;;;;;;;;;;;;5071149;28;20021;-88
2024/01/15 11:12:49;;;;;;;;;;;;;;;;;;5069683;28;19916;-88
2024/01/15 11:15:15;;;;;;;;;;;;;;;;;;5083187;28;19923;-88
2024/01/15 11:17:40;;;;;;;;;;;;;;;;;;5069717;28;20004;-88
2024/01/15 11:20:07;;;;;;;;;;;;;;;;;;5081795;28;19912;-87
2024/01/15 11:22:33;;;;;;;;;;;;;;;;;;5069749;28;19955;-87
2024/01/15 11:24:59;;;;;;;;;;;;;;;;;;5088486;28;19916;-89
2024/01/15 11:27:25;;;;;;;;;;;;;;;;;;5078165;28;19955;-88
2024/01/15 11:29:51;;;;;;;;;;;;;;;;;;5080523;28;19912;-89
2024/01/15 11:32:19;;;;;;;;;;;;;;;;;;5069926;28;19913;-88
2024/01/15 11:34:45;;;;;;;;;;;;;;;;;;5069938;28;19930;-89
2024/01/15 11:37:13;;;;;;;;;;;;;;;;;;5070114;28;19920;-88
2024/01/15 11:39:39;;;;;;;;;;;;;;;;;;5064012;28;19919;-78
2024/01/15 11:42:04;;;;;;;;;;;;;;;;;;5088857;28;19912;-79
2024/01/15 11:44:30;;;;;;;;;;;;;;;;;;5088412;28;19931;-80
2024/01/15 11:46:56;;;;;;;;;;;;;;;;;;5078250;28;19909;-79
2024/01/15 11:49:22;;;;;;;;;;;;;;;;;;5082023;28;19966;-88
2024/01/15 11:51:48;;;;;;;;;;;;;;;;;;5070004;28;19912;-86
2024/01/15 11:54:14;;;;;;;;;;;;;;;;;;5080047;28;20623;-89
2024/01/15 11:56:40;;;;;;;;;;;;;;;;;;5073673;28;19920;-89
2024/01/15 11:59:06;;;;;;;;;;;;;;;;;;5073918;28;19909;-89
2024/01/15 12:01:32;;;;;;;;;;;;;;;;;;5058192;28;19916;-87
2024/01/15 12:03:58;;;;;;;;;;;;;;;;;;5076107;28;19916;-87
2024/01/15 12:06:24;;;;;;;;;;;;;;;;;;5076797;28;19916;-86
2024/01/15 12:08:50;;;;;;;;;;;;;;;;;;5072485;28;19904;-89
2024/01/15 12:11:15;;;;;;;;;;;;;;;;;;5077367;28;19970;-88
2024/01/15 12:13:41;;;;;;;;;;;;;;;;;;5077873;28;19999;-87
2024/01/15 12:16:07;;;;;;;;;;;;;;;;;;5079029;28;19916;-88
2024/01/15 12:18:33;;;;;;;;;;;;;;;;;;5086375;28;20045;-88
2024/01/15 12:20:59;;;;;;;;;;;;;;;;;;5085655;28;19916;-87
2024/01/15 12:23:25;;;;;;;;;;;;;;;;;;5085006;28;19990;-87
2024/01/15 12:25:51;;;;;;;;;;;;;;;;;;5083454;28;19923;-85
2024/01/15 12:28:16;;;;;;;;;;;;;;;;;;5080549;28;19921;-88
2024/01/15 12:30:44;;;;;;;;;;;;;;;;;;5082110;28;19915;-87
2024/01/15 12:33:10;;;;;;;;;;;;;;;;;;5076415;28;20724;-87
2024/01/15 12:35:36;;;;;;;;;;;;;;;;;;5091882;28;19920;-88
2024/01/15 12:38:02;;;;;;;;;;;;;;;;;;5077112;28;20268;-87
2024/01/15 12:40:28;;;;;;;;;;;;;;;;;;5074484;28;19971;-88
2024/01/15 12:42:54;;;;;;;;;;;;;;;;;;5077105;28;19912;-88
2024/01/15 12:45:20;;;;;;;;;;;;;;;;;;5082173;28;19913;-87
2024/01/15 12:47:46;;;;;;;;;;;;;;;;;;5073044;28;19960;-88
2024/01/15 12:50:12;;;;;;;;;;;;;;;;;;5083908;28;19918;-89
2024/01/15 12:52:38;;;;;;;;;;;;;;;;;;5082690;28;20364;-87
2024/01/15 12:55:03;;;;;;;;;;;;;;;;;;5085125;28;19915;-89
2024/01/15 12:57:29;;;;;;;;;;;;;;;;;;5079449;28;19926;-89
2024/01/15 12:59:55;;;;;;;;;;;;;;;;;;5079811;28;19951;-89
2024/01/15 13:02:21;;;;;;;;;;;;;;;;;;5081371;28;19958;-90
2024/01/15 13:04:47;;;;;;;;;;;;;;;;;;5085180;28;19959;-88
2024/01/15 13:07:13;;;;;;;;;;;;;;;;;;5091355;28;20362;-88
2024/01/15 13:09:39;;;;;;;;;;;;;;;;;;5082509;28;20390;-88
2024/01/15 13:12:05;;;;;;;;;;;;;;;;;;5085545;28;20421;-88
2024/01/15 13:14:31;;;;;;;;;;;;;;;;;;5080219;28;19920;-89
2024/01/15 13:16:58;;;;;;;;;;;;;;;;;;5085018;28;19917;-90
2024/01/15 13:19:24;;;;;;;;;;;;;;;;;;5084817;28;19916;-89
2024/01/15 13:21:51;;;;;;;;;;;;;;;;;;5084545;28;19964;-92
2024/01/15 13:24:16;;;;;;;;;;;;;;;;;;5082892;28;19919;-88
2024/01/15 13:26:42;;;;;;;;;;;;;;;;;;5083689;28;19916;-88
2024/01/15 13:29:08;;;;;;;;;;;;;;;;;;5081065;28;19913;-88
2024/01/15 13:31:34;;;;;;;;;;;;;;;;;;5085057;28;20370;-89
2024/01/15 13:34:00;;;;;;;;;;;;;;;;;;5085098;28;20457;-89
2024/01/15 13:36:26;;;;;;;;;;;;;;;;;;5083484;28;20365;-90
2024/01/15 13:38:53;;;;;;;;;;;;;;;;;;5090094;28;20011;-88
2024/01/15 13:41:18;;;;;;;;;;;;;;;;;;5090475;28;19973;-89
2024/01/15 13:43:44;;;;;;;;;;;;;;;;;;5086026;28;19920;-88
2024/01/15 13:46:10;;;;;;;;;;;;;;;;;;5087466;28;20371;-89
2024/01/15 13:48:36;;;;;;;;;;;;;;;;;;5081762;28;20007;-86
2024/01/15 13:51:02;;;;;;;;;;;;;;;;;;5082867;28;20442;-80
2024/01/15 13:53:29;;;;;;;;;;;;;;;;;;5070321;28;20337;-83
2024/01/15 13:55:55;;;;;;;;;;;;;;;;;;5078021;28;19919;-83
2024/01/15 13:58:21;;;;;;;;;;;;;;;;;;5086919;28;19916;-87
2024/01/15 14:00:48;;;;;;;;;;;;;;;;;;5075322;28;19940;-84
2024/01/15 14:03:14;;;;;;;;;;;;;;;;;;5074290;28;19943;-88
2024/01/15 14:05:40;;;;;;;;;;;;;;;;;;5078682;28;19938;-87
2024/01/15 14:08:06;;;;;;;;;;;;;;;;;;5098681;28;19912;-89
2024/01/15 14:10:32;;;;;;;;;;;;;;;;;;5086358;28;19919;-89
2024/01/15 14:12:58;;;;;;;;;;;;;;;;;;5090962;28;19911;-89
2024/01/15 14:15:24;;;;;;;;;;;;;;;;;;5078324;28;19920;-91
2024/01/15 14:17:50;;;;;;;;;;;;;;;;;;5082572;28;19996;-90
2024/01/15 14:20:17;;;;;;;;;;;;;;;;;;5081428;28;19974;-90
2024/01/15 14:22:43;;;;;;;;;;;;;;;;;;5092871;28;20010;-89
2024/01/15 14:25:09;;;;;;;;;;;;;;;;;;5086505;28;19990;-90
2024/01/15 14:27:36;;;;;;;;;;;;;;;;;;5088931;28;19912;-87
2024/01/15 14:30:02;;;;;;;;;;;;;;;;;;5077086;28;19912;-91
2024/01/15 14:32:28;;;;;;;;;;;;;;;;;;5088794;28;19974;-87
2024/01/15 14:34:53;;;;;;;;;;;;;;;;;;5071877;28;19931;-87
2024/01/15 14:37:20;;;;;;;;;;;;;;;;;;5077287;28;19925;-85
2024/01/15 14:39:46;;;;;;;;;;;;;;;;;;5079270;28;19934;-89
2024/01/15 14:42:12;;;;;;;;;;;;;;;;;;5081515;28;19912;-89
2024/01/15 14:44:40;;;;;;;;;;;;;;;;;;5075937;28;20001;-90
2024/01/15 14:47:06;;;;;;;;;;;;;;;;;;5073183;28;19915;-88
2024/01/15 14:49:32;;;;;;;;;;;;;;;;;;5086522;28;19909;-88
2024/01/15 14:51:58;;;;;;;;;;;;;;;;;;5086161;28;20045;-90
2024/01/15 14:54:24;;;;;;;;;;;;;;;;;;5077160;28;19916;-89
2024/01/15 14:56:50;;;;;;;;;;;;;;;;;;5078981;28;19963;-90
2024/01/15 14:59:16;;;;;;;;;;;;;;;;;;5085527;28;19916;-87
2024/01/15 15:01:42;;;;;;;;;;;;;;;;;;5079870;28;19981;-86
2024/01/15 15:04:08;;;;;;;;;;;;;;;;;;5083369;28;19923;-81
2024/01/15 15:06:34;;;;;;;;;;;;;;;;;;5080343;28;20011;-83
2024/01/15 15:09:00;;;;;;;;;;;;;;;;;;5074569;28;20019;-81
2024/01/15 15:11:26;;;;;;;;;;;;;;;;;;5090731;28;20397;-81
2024/01/15 15:13:52;;;;;;;;;;;;;;;;;;5084279;28;19955;-81
2024/01/15 15:16:17;;;;;;;;;;;;;;;;;;5076997;28;20603;-82
2024/01/15 15:18:43;;;;;;;;;;;;;;;;;;5078508;28;19923;-82
2024/01/15 15:21:09;;;;;;;;;;;;;;;;;;5087564;28;19920;-81
2024/01/15 15:23:35;;;;;;;;;;;;;;;;;;5064501;28;19969;-81
2024/01/15 15:26:01;;;;;;;;;;;;;;;;;;5075949;28;19999;-82
2024/01/15 15:28:27;;;;;;;;;;;;;;;;;;5087543;28;20400;-82
2024/01/15 15:30:53;;;;;;;;;;;;;;;;;;5094596;28;20355;-82
2024/01/15 15:33:21;;;;;;;;;;;;;;;;;;5080015;28;19942;-82
2024/01/15 15:35:50;;;;;;;;;;;;;;;;;;5072817;28;19946;-82
2024/01/15 15:38:16;;;;;;;;;;;;;;;;;;5087334;28;19923;-83
2024/01/15 15:40:42;;;;;;;;;;;;;;;;;;5080044;28;19916;-82
2024/01/15 15:43:08;;;;;;;;;;;;;;;;;;5076314;28;20046;-82
2024/01/15 15:45:34;;;;;;;;;;;;;;;;;;5085890;28;20006;-82
2024/01/15 15:48:00;;;;;;;;;;;;;;;;;;5076123;28;20335;-82
2024/01/15 15:50:26;;;;;;;;;;;;;;;;;;5080893;28;20204;-83
2024/01/15 15:52:52;;;;;;;;;;;;;;;;;;5093220;28;19912;-82
2024/01/15 15:55:18;;;;;;;;;;;;;;;;;;5081316;28;19912;-82
2024/01/15 15:57:44;;;;;;;;;;;;;;;;;;5082249;28;20156;-82
2024/01/15 16:00:11;;;;;;;;;;;;;;;;;;5085027;28;20289;-83
2024/01/15 16:02:37;;;;;;;;;;;;;;;;;;5078484;28;19938;-82
2024/01/15 16:05:09;;;;;;;;;;;;;;;;;;5072298;28;20485;-81
2024/01/15 16:07:35;;;;;;;;;;;;;;;;;;5077387;28;20021;-81
2024/01/15 16:10:00;;;;;;;;;;;;;;;;;;5079244;28;19917;-83
2024/01/15 16:12:26;;;;;;;;;;;;;;;;;;5090534;28;20474;-82
2024/01/15 16:14:52;;;;;;;;;;;;;;;;;;5082080;28;19912;-83
2024/01/15 16:17:18;;;;;;;;;;;;;;;;;;5081426;28;19970;-83
2024/01/15 16:19:46;;;;;;;;;;;;;;;;;;5086357;28;19923;-82
2024/01/15 16:22:12;;;;;;;;;;;;;;;;;;5084060;28;19998;-84
2024/01/15 16:24:38;;;;;;;;;;;;;;;;;;5071136;28;20077;-81
2024/01/15 16:27:04;;;;;;;;;;;;;;;;;;5078588;28;19912;-82
2024/01/15 16:29:29;;;;;;;;;;;;;;;;;;5089080;28;19995;-81
2024/01/15 16:31:55;;;;;;;;;;;;;;;;;;5082510;28;19921;-87
2024/01/15 16:34:21;;;;;;;;;;;;;;;;;;5080030;28;19916;-89
2024/01/15 16:36:47;;;;;;;;;;;;;;;;;;5090463;28;19924;-89